createdAt,value
2022-12-14T00:02:54.066Z,17.97
2022-12-14T00:08:17.915Z,20.30
2022-12-14T00:13:41.039Z,21.53
2022-12-14T00:19:05.239Z,18.73
2022-12-14T00:24:26.991Z,19.60
2022-12-14T00:29:48.716Z,18.53
2022-12-14T00:35:12.151Z,17.33
2022-12-14T00:40:33.919Z,17.43
2022-12-14T00:45:55.717Z,18.03
2022-12-14T00:51:18.396Z,21.37
2022-12-14T00:56:40.137Z,19.87
2022-12-14T01:02:01.976Z,20.60
2022-12-14T01:07:23.796Z,15.90
2022-12-14T01:12:45.643Z,17.67
2022-12-14T01:18:07.616Z,20.70
2022-12-14T01:23:29.964Z,15.53
2022-12-14T01:28:57.176Z,15.53
2022-12-14T01:34:19.324Z,18.67
2022-12-14T01:39:41.119Z,14.77
2022-12-14T01:45:03.902Z,16.97
2022-12-14T01:50:35.846Z,19.33
2022-12-14T01:55:57.654Z,17.27
2022-12-14T02:01:19.493Z,16.77
2022-12-14T02:06:44.029Z,18.37
2022-12-14T02:12:12.861Z,19.40
2022-12-14T02:17:35.053Z,18.50
2022-12-14T02:23:29.387Z,19.20
2022-12-14T02:29:23.736Z,17.43
2022-12-14T02:35:04.120Z,17.67
2022-12-14T02:40:47.099Z,19.27
2022-12-14T02:46:29.040Z,20.43
2022-12-14T02:52:14.061Z,22.80
2022-12-14T02:57:50.631Z,19.60
2022-12-14T03:03:12.452Z,22.87
2022-12-14T03:08:36.072Z,19.13
2022-12-14T03:14:15.504Z,21.53
2022-12-14T03:19:54.743Z,18.13
2022-12-14T03:25:24.549Z,20.47
2022-12-14T03:31:01.314Z,21.27
2022-12-14T03:36:33.499Z,22.53
2022-12-14T03:42:10.099Z,21.40
2022-12-14T03:48:09.291Z,19.27
2022-12-14T03:53:33.935Z,23.83
2022-12-14T03:59:12.069Z,23.63
2022-12-14T04:04:49.137Z,23.30
2022-12-14T04:10:38.756Z,23.70
2022-12-14T04:16:26.385Z,23.07
2022-12-14T04:21:53.225Z,23.57
2022-12-14T04:27:24.683Z,23.83
2022-12-14T04:32:53.971Z,25.27
2022-12-14T04:38:20.097Z,23.43
2022-12-14T04:43:48.979Z,27.93
2022-12-14T04:49:18.344Z,21.77
2022-12-14T04:54:59.754Z,24.20
2022-12-14T05:00:21.495Z,26.23
2022-12-14T05:06:06.246Z,23.17
2022-12-14T05:17:14.988Z,26.37
2022-12-14T05:22:38.753Z,26.20
2022-12-14T05:28:00.502Z,22.30
2022-12-14T05:33:22.300Z,25.20
2022-12-14T05:38:44.068Z,20.30
2022-12-14T05:44:05.964Z,23.93
2022-12-14T05:49:27.709Z,25.10
2022-12-14T05:54:49.439Z,31.77
2022-12-14T06:00:11.703Z,28.17
2022-12-14T06:05:33.627Z,26.63
2022-12-14T06:11:02.578Z,31.93
2022-12-14T06:16:25.691Z,28.90
2022-12-14T06:21:47.519Z,26.30
2022-12-14T06:27:09.248Z,29.07
2022-12-14T06:32:31.005Z,28.17
2022-12-14T06:37:52.757Z,28.37
2022-12-14T06:43:15.288Z,31.13
2022-12-14T06:48:37.113Z,31.30
2022-12-14T06:53:58.936Z,34.00
2022-12-14T06:59:20.968Z,33.83
2022-12-14T07:04:42.692Z,39.77
2022-12-14T07:10:05.047Z,30.10
2022-12-14T07:15:26.830Z,34.37
2022-12-14T07:20:59.795Z,39.97
2022-12-14T07:26:27.527Z,35.17
2022-12-14T07:31:49.940Z,36.53
2022-12-14T07:37:13.188Z,32.77
2022-12-14T07:42:34.899Z,34.17
2022-12-14T07:47:57.072Z,33.67
2022-12-14T07:53:18.818Z,33.37
2022-12-14T07:58:41.082Z,33.83
2022-12-14T08:04:09.272Z,32.30
2022-12-14T08:09:31.420Z,35.93
2022-12-14T08:14:53.235Z,33.07
2022-12-14T08:20:15.065Z,32.67
2022-12-14T08:25:36.820Z,36.30
2022-12-14T08:31:04.644Z,35.93
2022-12-14T08:36:29.535Z,36.43
2022-12-14T08:41:51.508Z,30.00
2022-12-14T08:47:13.215Z,42.03
2022-12-14T08:52:34.989Z,41.60
2022-12-14T08:57:56.980Z,35.20
2022-12-14T09:03:18.860Z,49.33
2022-12-14T09:08:41.152Z,42.77
2022-12-14T09:14:03.022Z,46.63
2022-12-14T09:19:24.829Z,38.53
2022-12-14T09:24:46.613Z,39.90
2022-12-14T09:30:08.879Z,38.23
2022-12-14T09:35:30.570Z,39.43
2022-12-14T09:40:57.384Z,44.67
2022-12-14T09:46:44.157Z,41.30
2022-12-14T09:52:10.283Z,44.93
2022-12-14T09:57:39.130Z,41.93
2022-12-14T10:03:58.104Z,40.03
2022-12-14T10:09:32.653Z,42.83
2022-12-14T10:15:01.962Z,40.90
2022-12-14T10:20:35.796Z,44.17
2022-12-14T10:26:07.462Z,45.30
2022-12-14T10:31:44.832Z,45.70
2022-12-14T10:37:12.578Z,44.60
2022-12-14T10:42:43.823Z,49.40
2022-12-14T10:48:39.855Z,45.40
2022-12-14T10:54:08.620Z,50.37
2022-12-14T10:59:39.619Z,46.13
2022-12-14T11:05:16.933Z,49.47
2022-12-14T11:10:41.556Z,43.53
2022-12-14T11:16:33.677Z,49.60
2022-12-14T11:22:18.446Z,46.10
2022-12-14T11:27:43.660Z,58.67
2022-12-14T11:33:05.484Z,47.37
2022-12-14T11:38:29.972Z,51.90
2022-12-14T11:44:04.166Z,65.97
2022-12-14T11:49:43.835Z,52.83
2022-12-14T11:55:26.177Z,52.83
2022-12-14T12:00:50.816Z,54.47
2022-12-14T12:06:15.648Z,43.77
2022-12-14T12:11:45.262Z,51.63
2022-12-14T12:17:37.519Z,50.87
2022-12-14T12:23:06.821Z,51.97
2022-12-14T12:28:34.175Z,54.10
2022-12-14T12:34:01.899Z,46.53
2022-12-14T12:39:24.931Z,47.00
2022-12-14T12:45:05.293Z,52.87
2022-12-14T12:50:32.092Z,53.43
2022-12-14T12:56:03.482Z,46.10
2022-12-14T13:01:28.736Z,49.10
2022-12-14T13:06:56.795Z,46.10
2022-12-14T13:12:28.523Z,48.57
2022-12-14T13:18:05.512Z,49.87
2022-12-14T13:23:45.535Z,56.00
2022-12-14T13:29:23.304Z,48.27
2022-12-14T13:35:31.436Z,46.03
2022-12-14T13:41:08.831Z,48.27
2022-12-14T13:46:31.034Z,48.40
2022-12-14T13:51:52.959Z,49.30
2022-12-14T13:57:23.328Z,45.10
2022-12-14T14:02:53.440Z,48.37
2022-12-14T14:08:39.208Z,55.50
2022-12-14T14:14:11.947Z,48.80
2022-12-14T14:19:39.465Z,48.10
2022-12-14T14:25:25.765Z,54.97
2022-12-14T14:30:54.258Z,51.90
2022-12-14T14:36:30.437Z,46.20
2022-12-14T14:41:53.515Z,47.07
2022-12-14T14:47:35.763Z,47.60
2022-12-14T14:53:19.474Z,49.13
2022-12-14T14:58:42.401Z,47.97
2022-12-14T15:04:21.517Z,46.63
2022-12-14T15:09:59.563Z,43.50
2022-12-14T15:15:36.104Z,39.50
2022-12-14T15:21:19.261Z,36.37
2022-12-14T15:26:41.659Z,37.60
2022-12-14T15:32:05.029Z,37.70
2022-12-14T15:37:48.747Z,35.63
2022-12-14T15:43:20.818Z,36.73
2022-12-14T15:48:42.954Z,36.10
2022-12-14T15:54:07.319Z,35.90
2022-12-14T15:59:32.288Z,38.83
2022-12-14T16:04:56.700Z,36.90
2022-12-14T16:10:24.060Z,38.43
2022-12-14T16:15:46.613Z,37.20
2022-12-14T16:21:26.369Z,35.00
2022-12-14T16:26:56.975Z,34.23
2022-12-14T16:32:21.269Z,39.83
2022-12-14T16:37:43.155Z,35.37
2022-12-14T16:43:06.598Z,36.67
2022-12-14T16:48:29.192Z,34.10
2022-12-14T16:54:02.451Z,35.17
2022-12-14T16:59:44.308Z,34.43
2022-12-14T17:05:14.389Z,37.57
2022-12-14T17:10:38.741Z,33.03
2022-12-14T17:16:03.772Z,38.50
2022-12-14T17:21:28.333Z,34.57
2022-12-14T17:26:52.511Z,33.57
2022-12-14T17:32:16.540Z,32.47
2022-12-14T17:37:38.329Z,33.73
2022-12-14T17:43:00.024Z,31.47
2022-12-14T17:48:21.786Z,31.80
2022-12-14T17:53:43.883Z,33.10
2022-12-14T17:59:05.651Z,32.00
2022-12-14T18:04:27.559Z,33.63
2022-12-14T18:09:50.477Z,33.03
2022-12-14T18:15:19.575Z,30.97
2022-12-14T18:20:43.077Z,31.57
2022-12-14T18:26:06.124Z,34.97
2022-12-14T18:31:35.948Z,35.60
2022-12-14T18:36:58.111Z,32.77
2022-12-14T18:42:22.675Z,31.83
2022-12-14T18:47:45.819Z,34.03
2022-12-14T18:53:11.805Z,36.93
2022-12-14T18:58:33.665Z,35.53
2022-12-14T19:03:55.596Z,37.10
2022-12-14T19:09:17.648Z,37.20
2022-12-14T19:14:40.044Z,36.50
2022-12-14T19:20:02.150Z,31.90
2022-12-14T19:25:24.370Z,34.80
2022-12-14T19:30:46.620Z,33.80
2022-12-14T19:36:09.324Z,34.33
2022-12-14T19:41:31.196Z,35.23
2022-12-14T19:46:53.092Z,38.40
2022-12-14T19:52:14.894Z,38.43
2022-12-14T19:57:38.377Z,40.13
2022-12-14T20:03:00.297Z,39.33
2022-12-14T20:08:23.137Z,43.00
2022-12-14T20:13:44.848Z,41.40
2022-12-14T20:19:07.073Z,42.37
2022-12-14T20:24:28.976Z,40.90
2022-12-14T20:29:50.845Z,45.83
2022-12-14T20:35:16.713Z,44.93
2022-12-14T20:40:39.480Z,45.23
2022-12-14T20:46:02.018Z,41.40
2022-12-14T20:51:24.093Z,44.73
2022-12-14T20:56:49.389Z,45.57
2022-12-14T21:02:20.531Z,57.87
2022-12-14T21:07:42.469Z,46.00
2022-12-14T21:13:07.576Z,43.23
2022-12-14T21:18:29.815Z,44.23
2022-12-14T21:23:51.579Z,47.20
2022-12-14T21:29:14.317Z,46.40
2022-12-14T21:34:36.239Z,46.03
2022-12-14T21:39:57.935Z,50.60
2022-12-14T21:45:19.716Z,48.50
2022-12-14T21:50:43.634Z,46.03
2022-12-14T21:56:24.537Z,45.67
2022-12-14T22:01:46.363Z,42.20
2022-12-14T22:07:08.175Z,43.03
2022-12-14T22:12:29.967Z,45.53
2022-12-14T22:17:51.767Z,45.83
2022-12-14T22:23:13.587Z,44.67
2022-12-14T22:28:35.365Z,47.40
2022-12-14T22:33:57.533Z,46.63
2022-12-14T22:39:19.741Z,46.23
2022-12-14T22:44:41.521Z,48.33
2022-12-14T22:50:03.540Z,44.57
2022-12-14T22:55:27.836Z,46.73
2022-12-14T23:00:50.028Z,46.27
2022-12-14T23:06:15.534Z,47.77
2022-12-14T23:11:55.760Z,49.57
2022-12-14T23:17:36.506Z,44.50
2022-12-14T23:23:16.674Z,46.63
2022-12-14T23:28:57.525Z,45.23
2022-12-14T23:34:38.121Z,43.97
2022-12-14T23:40:18.268Z,45.83
2022-12-14T23:45:58.967Z,44.83
2022-12-14T23:51:39.035Z,45.33
2022-12-14T23:57:19.346Z,47.67
